Time;durP1;ratioP1;P1;durP2;ratioP2;P2;SDS_P1;SDS_P2;PMS_P1;PMS_P2;Temp;Humidity;BMP_temperature;BMP_pressure;BME280_temperature;BME280_humidity;BME280_pressure;Samples;Min_cycle;Max_cycle;Signal;HPM_P1;HPM_P2
2023/07/12 00:02:04;;;;;;;13.90;8.63;;;;;;;22.07;100.00;100252.22;5548766;32;33170;-62
2023/07/12 00:05:08;;;;;;;14.32;8.10;;;;;;;22.06;100.00;100256.03;5535121;32;33929;-61
2023/07/12 00:08:21;;;;;;;12.27;8.10;;;;;;;21.99;100.00;100254.53;5535006;32;33861;-61
2023/07/12 00:11:24;;;;;;;13.30;7.87;;;;;;;22.01;100.00;100260.53;5548631;32;32798;-61
2023/07/12 00:14:27;;;;;;;14.15;8.55;;;;;;;21.95;100.00;100256.09;5548512;32;33408;-61
2023/07/12 00:17:30;;;;;;;12.57;9.00;;;;;;;21.93;100.00;100260.91;5534884;32;33730;-61
2023/07/12 00:20:35;;;;;;;10.55;8.25;;;;;;;21.97;100.00;100246.69;5534868;32;33903;-61
2023/07/12 00:23:39;;;;;;;13.23;8.30;;;;;;;21.93;100.00;100252.78;5534785;32;35087;-61
2023/07/12 00:26:42;;;;;;;12.27;8.02;;;;;;;21.81;100.00;100257.44;5548439;32;34672;-61
2023/07/12 00:29:45;;;;;;;10.15;7.20;;;;;;;21.76;100.00;100262.75;5534917;32;33740;-61
2023/07/12 00:32:52;;;;;;;10.15;6.95;;;;;;;21.71;100.00;100263.47;5548404;32;33454;-61
2023/07/12 00:35:55;;;;;;;11.18;6.82;;;;;;;21.65;100.00;100272.53;5548245;32;33519;-61
2023/07/12 00:39:00;;;;;;;11.07;7.28;;;;;;;21.61;100.00;100271.41;5548771;32;33581;-61
2023/07/12 00:42:12;;;;;;;11.12;6.78;;;;;;;21.71;100.00;100260.78;5548312;32;33534;-61
2023/07/12 00:45:15;;;;;;;9.00;6.78;;;;;;;21.72;100.00;100257.03;5548426;32;33763;-61
2023/07/12 00:48:19;;;;;;;10.85;7.07;;;;;;;21.74;100.00;100249.47;5534554;32;34879;-62
2023/07/12 00:51:32;;;;;;;10.88;6.97;;;;;;;21.74;100.00;100243.25;5534612;32;33609;-61
2023/07/12 00:54:52;;;;;;;10.40;6.60;;;;;;;21.70;100.00;100240.25;5548323;32;33813;-61
2023/07/12 00:57:55;;;;;;;11.18;6.75;;;;;;;21.67;100.00;100246.97;5533858;32;34222;-61
2023/07/12 01:01:02;;;;;;;8.50;6.45;;;;;;;21.65;100.00;100251.78;5548189;32;34918;-60
2023/07/12 01:04:05;;;;;;;11.63;6.70;;;;;;;21.59;100.00;100252.72;5534500;32;33846;-61
2023/07/12 01:07:10;;;;;;;10.60;6.28;;;;;;;21.56;100.00;100252.41;5534612;32;34101;-61
2023/07/12 01:10:12;;;;;;;10.60;6.90;;;;;;;21.52;100.00;100241.28;5534816;32;33664;-61
2023/07/12 01:13:20;;;;;;;12.35;7.00;;;;;;;21.47;100.00;100243.06;5548160;32;34450;-59
2023/07/12 01:16:23;;;;;;;11.80;6.30;;;;;;;21.47;100.00;100235.78;5548006;32;33532;-61
2023/07/12 01:19:28;;;;;;;11.50;6.70;;;;;;;21.48;100.00;100239.31;5548061;32;33750;-59
2023/07/12 01:22:31;;;;;;;10.25;6.93;;;;;;;21.36;100.00;100239.34;5548038;32;32457;-60
2023/07/12 01:25:40;;;;;;;9.82;6.53;;;;;;;21.23;100.00;100223.47;5534919;32;33846;-60
2023/07/12 01:28:45;;;;;;;10.43;6.62;;;;;;;21.21;100.00;100218.31;5547825;32;33968;-60
2023/07/12 01:31:49;;;;;;;8.77;6.15;;;;;;;21.17;100.00;100210.94;5534216;32;33923;-60
2023/07/12 01:34:52;;;;;;;10.05;6.53;;;;;;;21.16;100.00;100209.28;5547908;32;33866;-61
2023/07/12 01:37:55;;;;;;;10.18;6.82;;;;;;;21.18;100.00;100220.66;5547959;32;33950;-61
2023/07/12 01:40:58;;;;;;;8.73;6.45;;;;;;;21.11;100.00;100215.38;5547822;32;34025;-61
2023/07/12 01:44:02;;;;;;;10.77;6.50;;;;;;;21.09;100.00;100220.22;5547618;32;34682;-61
2023/07/12 01:47:05;;;;;;;11.43;6.25;;;;;;;21.15;100.00;100229.25;5547762;32;33725;-61
2023/07/12 01:50:08;;;;;;;9.70;6.55;;;;;;;21.14;100.00;100222.22;5534130;32;34262;-60
2023/07/12 01:53:11;;;;;;;8.07;6.22;;;;;;;21.13;100.00;100224.09;5547732;32;33871;-61
2023/07/12 01:56:16;;;;;;;12.02;6.80;;;;;;;21.15;100.00;100221.16;5534140;32;35006;-61
2023/07/12 01:59:19;;;;;;;9.48;5.97;;;;;;;21.10;100.00;100229.94;5533703;32;34654;-61
2023/07/12 02:02:22;;;;;;;10.43;6.85;;;;;;;20.98;100.00;100233.72;5534010;32;33891;-61
2023/07/12 02:05:26;;;;;;;7.93;6.10;;;;;;;21.00;100.00;100224.34;5547557;32;33657;-60
2023/07/12 02:08:28;;;;;;;8.35;6.60;;;;;;;21.00;100.00;100229.75;5533627;32;33493;-61
2023/07/12 02:11:31;;;;;;;9.80;5.75;;;;;;;21.05;100.00;100226.31;5532894;32;33537;-61
2023/07/12 02:14:35;;;;;;;10.20;6.05;;;;;;;21.00;100.00;100237.00;5547429;32;33836;-60
2023/07/12 02:17:39;;;;;;;9.60;5.85;;;;;;;21.04;100.00;100232.78;5533903;32;33828;-61
2023/07/12 02:20:42;;;;;;;10.73;6.15;;;;;;;21.10;100.00;100227.25;5533658;32;35114;-61
2023/07/12 02:23:45;;;;;;;11.12;5.90;;;;;;;21.04;100.00;100233.59;5547321;32;33739;-61
2023/07/12 02:26:48;;;;;;;9.00;5.85;;;;;;;21.05;100.00;100215.53;5546658;32;33837;-61
2023/07/12 02:29:52;;;;;;;10.07;5.45;;;;;;;21.02;100.00;100207.91;5547116;32;32996;-61
2023/07/12 02:32:55;;;;;;;9.77;5.80;;;;;;;21.00;100.00;100207.34;5547151;32;33793;-61
2023/07/12 02:35:58;;;;;;;10.50;5.72;;;;;;;20.96;100.00;100204.28;5547058;32;33766;-61
2023/07/12 02:39:01;;;;;;;9.07;5.57;;;;;;;20.96;100.00;100198.88;5533221;32;33628;-61
2023/07/12 02:42:04;;;;;;;8.35;5.72;;;;;;;20.89;100.00;100195.53;5546937;32;33866;-60
2023/07/12 02:45:08;;;;;;;10.07;5.50;;;;;;;20.89;100.00;100190.13;5533055;32;33591;-61
2023/07/12 02:48:11;;;;;;;8.65;5.70;;;;;;;20.87;100.00;100197.63;5546842;32;34434;-61
2023/07/12 02:51:13;;;;;;;9.02;5.57;;;;;;;20.94;100.00;100201.03;5546875;32;34312;-61
2023/07/12 02:54:16;;;;;;;10.15;5.22;;;;;;;21.04;100.00;100200.41;5546740;32;33795;-61
2023/07/12 02:57:19;;;;;;;10.25;5.53;;;;;;;21.12;100.00;100198.12;5546524;32;34526;-61
2023/07/12 03:00:22;;;;;;;9.45;5.60;;;;;;;21.18;99.67;100191.00;5546533;32;33746;-61
2023/07/12 03:03:28;;;;;;;7.07;5.18;;;;;;;21.15;99.76;100199.59;5546523;32;34282;-61
2023/07/12 03:06:32;;;;;;;9.45;5.50;;;;;;;21.13;99.98;100189.03;5546784;32;33911;-61
2023/07/12 03:09:35;;;;;;;7.97;5.32;;;;;;;21.14;99.58;100193.37;5546915;32;33241;-61
2023/07/12 03:12:38;;;;;;;7.97;5.22;;;;;;;21.21;99.22;100180.53;5546295;32;33836;-61
2023/07/12 03:15:41;;;;;;;8.75;5.18;;;;;;;21.14;99.73;100179.87;5546340;32;33706;-61
2023/07/12 03:18:44;;;;;;;9.45;5.55;;;;;;;21.13;100.00;100172.84;5546596;32;33761;-61
2023/07/12 03:21:47;;;;;;;9.57;5.50;;;;;;;21.23;100.00;100188.41;5547480;32;34341;-61
2023/07/12 03:24:50;;;;;;;10.88;4.70;;;;;;;21.19;100.00;100177.28;5535017;32;33605;-61
2023/07/12 03:27:53;;;;;;;10.23;5.60;;;;;;;21.24;100.00;100184.62;5548878;32;34499;-61
2023/07/12 03:31:12;;;;;;;9.50;5.32;;;;;;;21.31;100.00;100193.37;5548801;32;33951;-60
2023/07/12 03:34:15;;;;;;;9.73;5.60;;;;;;;21.43;100.00;100191.47;5548675;32;34317;-60
2023/07/12 03:37:19;;;;;;;9.55;5.50;;;;;;;21.48;100.00;100194.25;5548904;32;34363;-61
2023/07/12 03:40:22;;;;;;;8.95;5.30;;;;;;;21.38;100.00;100212.12;5535287;32;33510;-61
2023/07/12 03:43:26;;;;;;;9.38;5.72;;;;;;;21.31;100.00;100208.75;5548518;32;33886;-61
2023/07/12 03:46:28;;;;;;;8.70;5.15;;;;;;;21.27;100.00;100199.50;5548750;32;34511;-62
2023/07/12 03:49:31;;;;;;;9.23;5.62;;;;;;;21.24;100.00;100204.34;5535451;32;33700;-61
2023/07/12 03:52:34;;;;;;;8.35;5.72;;;;;;;21.35;100.00;100205.34;5535075;32;33121;-61
2023/07/12 03:55:42;;;;;;;14.63;5.70;;;;;;;21.31;100.00;100193.37;5548609;32;33068;-61
2023/07/12 03:58:45;;;;;;;10.65;5.93;;;;;;;21.38;100.00;100179.75;5548696;32;34641;-61
2023/07/12 04:01:48;;;;;;;9.10;5.35;;;;;;;21.47;100.00;100189.09;5534869;32;34019;-61
2023/07/12 04:04:51;;;;;;;10.85;5.22;;;;;;;21.67;100.00;100198.34;5548653;32;34405;-61
2023/07/12 04:07:56;;;;;;;10.93;5.53;;;;;;;21.78;100.00;100201.22;5548677;32;33676;-61
2023/07/12 04:11:00;;;;;;;10.75;5.50;;;;;;;21.77;100.00;100202.28;5534830;32;34494;-61
2023/07/12 04:14:02;;;;;;;10.65;5.45;;;;;;;21.89;100.00;100206.53;5548529;32;33572;-61
2023/07/12 04:17:06;;;;;;;11.63;5.40;;;;;;;22.06;99.54;100215.50;5548289;32;34163;-61
2023/07/12 04:20:10;;;;;;;9.88;5.57;;;;;;;22.12;98.85;100224.50;5548327;32;33884;-61
2023/07/12 04:23:13;;;;;;;10.18;5.45;;;;;;;22.26;98.10;100219.56;5548584;32;33472;-61
2023/07/12 04:26:17;;;;;;;9.95;5.20;;;;;;;22.25;96.64;100217.94;5534547;32;33828;-61
2023/07/12 04:29:21;;;;;;;14.73;5.60;;;;;;;22.20;97.25;100209.75;5547902;32;33868;-61
2023/07/12 04:32:24;;;;;;;9.40;5.05;;;;;;;22.21;96.60;100212.19;5547231;32;34074;-62
2023/07/12 04:35:30;;;;;;;8.82;5.37;;;;;;;22.30;94.83;100201.78;5547976;32;34796;-61
2023/07/12 04:38:33;;;;;;;10.05;5.50;;;;;;;22.33;95.25;100171.53;5534430;32;33787;-61
2023/07/12 04:41:36;;;;;;;10.40;4.95;;;;;;;22.38;94.83;100158.09;5548135;32;33808;-62
2023/07/12 04:44:39;;;;;;;12.70;5.57;;;;;;;22.65;92.86;100172.53;5547734;32;33643;-61
2023/07/12 04:47:43;;;;;;;9.95;5.18;;;;;;;22.65;91.06;100187.94;5534567;32;33835;-61
2023/07/12 04:50:50;;;;;;;8.35;5.25;;;;;;;22.56;91.61;100170.50;5548054;32;34338;-62
2023/07/12 04:53:53;;;;;;;8.50;5.10;;;;;;;22.47;94.32;100170.94;5546785;32;33501;-61
2023/07/12 04:56:55;;;;;;;17.25;5.37;;;;;;;22.54;97.86;100184.28;5547820;32;34755;-61
2023/07/12 04:59:59;;;;;;;12.23;5.80;;;;;;;22.40;99.21;100197.34;5547877;32;34338;-62
2023/07/12 05:03:02;;;;;;;12.30;5.80;;;;;;;22.34;97.29;100192.09;5548050;32;34009;-62
2023/07/12 05:06:05;;;;;;;12.35;5.50;;;;;;;22.29;95.70;100192.84;5547741;32;33562;-62
2023/07/12 05:09:23;;;;;;;9.57;5.72;;;;;;;22.19;97.92;100194.59;5547785;32;34598;-62
2023/07/12 05:12:26;;;;;;;11.10;4.97;;;;;;;22.16;98.63;100203.19;5534215;32;33550;-62
2023/07/12 05:15:29;;;;;;;13.45;6.62;;;;;;;22.06;99.03;100210.09;5547462;32;34748;-62
2023/07/12 05:18:32;;;;;;;12.02;5.65;;;;;;;22.00;100.00;100180.53;5533935;32;35341;-62
2023/07/12 05:21:35;;;;;;;10.82;5.53;;;;;;;21.98;98.55;100193.44;5534013;32;33833;-62
2023/07/12 05:24:38;;;;;;;12.68;5.53;;;;;;;21.96;96.72;100214.50;5533871;32;34416;-62
2023/07/12 05:27:41;;;;;;;9.27;5.50;;;;;;;21.93;99.28;100198.78;5547812;32;34127;-62
2023/07/12 05:30:44;;;;;;;16.67;6.00;;;;;;;21.97;99.27;100198.06;5523422;32;33539;-61
2023/07/12 05:33:47;;;;;;;16.23;5.60;;;;;;;21.99;100.00;100184.28;5530707;32;33096;-62
2023/07/12 05:36:50;;;;;;;18.33;6.25;;;;;;;21.93;100.00;100187.97;5538007;32;34378;-61
2023/07/12 05:39:53;;;;;;;13.02;5.87;;;;;;;21.92;100.00;100197.13;5533265;32;34011;-62
2023/07/12 05:42:57;;;;;;;19.17;6.20;;;;;;;21.97;100.00;100189.97;5547197;32;32499;-62
2023/07/12 05:45:59;;;;;;;9.40;5.62;;;;;;;22.13;97.01;100182.06;5546705;32;33624;-62
2023/07/12 05:49:03;;;;;;;8.43;5.85;;;;;;;22.48;94.25;100182.56;5547261;32;34188;-62
2023/07/12 05:52:06;;;;;;;24.55;6.22;;;;;;;22.79;90.91;100191.91;5545385;32;33927;-60
2023/07/12 05:55:11;;;;;;;12.25;5.53;;;;;;;23.09;89.22;100186.84;5532481;32;33712;-60
2023/07/12 05:58:14;;;;;;;12.02;5.68;;;;;;;23.15;87.86;100190.41;5516162;32;34900;-60
2023/07/12 06:01:17;;;;;;;15.32;5.93;;;;;;;23.10;86.19;100198.47;5527822;32;33638;-61
2023/07/12 06:04:20;;;;;;;14.02;6.20;;;;;;;23.35;85.24;100207.69;5527666;32;34221;-61
2023/07/12 06:07:26;;;;;;;32.40;6.62;;;;;;;23.57;84.65;100191.44;5527576;32;33947;-61
2023/07/12 06:10:28;;;;;;;12.55;5.90;;;;;;;23.54;87.13;100191.09;5514203;32;33821;-61
2023/07/12 06:13:31;;;;;;;11.73;6.07;;;;;;;23.79;84.32;100184.00;5514171;32;33943;-61
2023/07/12 06:16:35;;;;;;;11.02;6.18;;;;;;;23.70;80.69;100182.87;5527909;32;35136;-62
2023/07/12 06:19:40;;;;;;;22.90;6.35;;;;;;;23.62;82.44;100168.97;5531848;32;33817;-63
2023/07/12 06:22:43;;;;;;;17.62;6.18;;;;;;;23.52;85.10;100156.19;5527457;32;33835;-60
2023/07/12 06:25:46;;;;;;;11.38;5.75;;;;;;;23.53;85.75;100136.13;5513944;32;33671;-61
2023/07/12 06:28:50;;;;;;;16.05;5.80;;;;;;;24.04;83.81;100136.50;5545039;32;33812;-61
2023/07/12 06:31:54;;;;;;;10.43;5.87;;;;;;;23.70;86.50;100128.69;5546570;32;33021;-61
2023/07/12 06:34:57;;;;;;;11.55;6.00;;;;;;;23.63;84.24;100136.22;5546582;32;34491;-61
2023/07/12 06:38:00;;;;;;;12.60;5.82;;;;;;;24.07;82.77;100125.94;5544482;32;34541;-62
2023/07/12 06:41:03;;;;;;;11.68;5.57;;;;;;;23.98;80.77;100124.81;5543909;32;33906;-61
2023/07/12 06:44:06;;;;;;;10.63;6.10;;;;;;;23.79;79.93;100120.88;5546522;32;34297;-61
2023/07/12 06:47:10;;;;;;;22.15;6.32;;;;;;;24.22;78.92;100128.78;5531421;32;32501;-61
2023/07/12 06:50:13;;;;;;;14.65;5.90;;;;;;;24.58;75.15;100123.50;5537465;32;32618;-61
2023/07/12 06:53:16;;;;;;;7.85;5.55;;;;;;;24.51;74.92;100128.34;5538407;32;33397;-61
2023/07/12 06:56:19;;;;;;;18.33;5.55;;;;;;;24.57;72.40;100136.25;5543732;32;36280;-61
2023/07/12 06:59:23;;;;;;;11.73;6.18;;;;;;;24.81;75.15;100133.06;5545205;32;34814;-61
2023/07/12 07:02:26;;;;;;;17.87;5.57;;;;;;;25.00;74.32;100136.94;5526952;32;33802;-61
2023/07/12 07:05:32;;;;;;;11.52;5.60;;;;;;;25.15;75.47;100128.03;5532373;32;34681;-61
2023/07/12 07:08:35;;;;;;;17.73;5.75;;;;;;;25.74;71.23;100131.87;5529517;32;34113;-61
2023/07/12 07:11:38;;;;;;;15.63;5.28;;;;;;;26.07;70.24;100135.06;5542503;32;33862;-62
2023/07/12 07:14:41;;;;;;;15.60;6.57;;;;;;;25.49;69.90;100129.13;5548606;32;34469;-62
2023/07/12 07:17:45;;;;;;;16.65;6.55;;;;;;;25.49;70.98;100123.69;5548448;32;34030;-62
2023/07/12 07:20:48;;;;;;;11.05;5.65;;;;;;;25.64;69.20;100120.19;5548589;32;35129;-62
2023/07/12 07:23:51;;;;;;;11.35;5.90;;;;;;;25.68;67.94;100097.63;5548578;32;34037;-62
2023/07/12 07:26:55;;;;;;;12.27;5.43;;;;;;;25.62;69.41;100095.19;5548294;32;34221;-61
2023/07/12 07:29:58;;;;;;;15.13;5.65;;;;;;;26.28;67.41;100087.72;5534717;32;33784;-61
2023/07/12 07:33:01;;;;;;;10.85;6.05;;;;;;;26.72;65.14;100069.53;5531240;32;35306;-62
2023/07/12 07:36:08;;;;;;;8.88;5.87;;;;;;;26.89;60.76;100052.84;5534593;32;34681;-61
2023/07/12 07:39:12;;;;;;;23.25;6.50;;;;;;;27.25;59.22;100051.47;5547536;32;34251;-61
2023/07/12 07:42:15;;;;;;;16.52;5.70;;;;;;;27.92;56.64;100048.94;5529055;32;33959;-62
2023/07/12 07:45:17;;;;;;;35.17;6.62;;;;;;;28.61;54.34;100042.09;5535407;32;34541;-62
2023/07/12 07:48:21;;;;;;;12.02;5.40;;;;;;;29.75;50.92;100048.69;5545212;32;33727;-62
2023/07/12 07:51:26;;;;;;;12.52;5.53;;;;;;;30.21;49.46;100048.62;5529610;32;34715;-61
2023/07/12 07:54:29;;;;;;;35.78;6.75;;;;;;;30.91;47.88;100029.00;5542907;32;33848;-62
2023/07/12 07:57:32;;;;;;;16.85;5.90;;;;;;;30.94;47.76;100035.78;5534433;32;34413;-62
2023/07/12 08:00:36;;;;;;;19.27;5.35;;;;;;;31.54;46.15;100027.16;5542061;32;33538;-62
2023/07/12 08:03:39;;;;;;;12.88;5.50;;;;;;;32.17;45.50;100022.12;5530044;32;33569;-62
2023/07/12 08:06:42;;;;;;;13.52;5.87;;;;;;;32.16;44.89;100025.19;5539271;32;34142;-62
2023/07/12 08:09:46;;;;;;;29.48;5.95;;;;;;;32.64;43.57;100014.94;5527946;32;34653;-62
2023/07/12 08:12:49;;;;;;;16.70;5.72;;;;;;;33.07;42.12;100011.34;5528790;32;34371;-62
2023/07/12 08:15:56;;;;;;;11.70;6.20;;;;;;;33.10;41.13;100008.78;5528527;32;34338;-62
2023/07/12 08:18:59;;;;;;;9.50;5.50;;;;;;;33.33;41.93;100000.31;5528781;32;34105;-62
2023/07/12 08:22:08;;;;;;;19.73;6.18;;;;;;;34.13;39.47;99993.03;5528532;32;33584;-62
2023/07/12 08:25:11;;;;;;;19.85;6.00;;;;;;;34.48;39.99;99995.22;5528682;32;33917;-63
2023/07/12 08:28:14;;;;;;;12.48;5.75;;;;;;;34.42;39.50;99996.56;5531990;32;34409;-62
2023/07/12 08:31:17;;;;;;;20.23;6.37;;;;;;;33.72;40.49;99977.22;5548014;32;34977;-62
2023/07/12 08:34:20;;;;;;;16.83;5.62;;;;;;;32.50;43.01;99970.31;5518899;32;33923;-62
2023/07/12 08:37:29;;;;;;;21.67;6.32;;;;;;;32.40;43.93;99978.87;5510622;32;33640;-63
2023/07/12 08:40:47;;;;;;;8.35;5.80;;;;;;;32.17;44.06;99977.41;5502965;32;33616;-62
2023/07/12 08:43:52;;;;;;;19.75;6.15;;;;;;;32.59;42.79;99968.38;5528354;32;34248;-62
2023/07/12 08:47:00;;;;;;;14.00;6.30;;;;;;;31.78;44.71;99975.50;5547992;32;33811;-62
2023/07/12 08:50:16;;;;;;;12.55;5.97;;;;;;;32.55;43.50;99978.41;5547800;32;33145;-63
2023/07/12 08:53:26;;;;;;;57.33;8.07;;;;;;;33.41;42.78;99988.47;5538785;32;33952;-63
2023/07/12 08:56:30;;;;;;;9.52;6.12;;;;;;;34.48;41.06;99992.47;5528654;32;32461;-61
2023/07/12 08:59:33;;;;;;;15.80;5.78;;;;;;;34.41;39.81;99988.66;5514852;32;33786;-68
2023/07/12 09:02:42;;;;;;;13.35;5.90;;;;;;;34.87;39.38;99996.69;5528928;32;33570;-64
2023/07/12 09:05:58;;;;;;;17.85;9.60;;;;;;;33.31;41.30;99992.38;5520965;32;33784;-63
2023/07/12 09:09:15;;;;;;;16.42;6.25;;;;;;;33.70;41.92;99998.75;5542766;32;34026;-62
2023/07/12 09:12:37;;;;;;;17.15;6.78;;;;;;;34.68;40.81;100012.09;5532529;32;32316;-63
2023/07/12 09:15:52;;;;;;;21.67;6.00;;;;;;;34.17;41.14;100019.56;5515690;32;34538;-63
2023/07/12 09:19:22;;;;;;;9.53;5.37;;;;;;;32.68;42.59;100020.59;5527757;32;34337;-63
2023/07/12 09:22:39;;;;;;;15.35;6.37;;;;;;;33.09;42.44;100017.34;5528326;32;33864;-63
2023/07/12 09:25:56;;;;;;;13.25;6.00;;;;;;;32.56;43.60;100012.16;5528312;32;34256;-63
2023/07/12 09:29:12;;;;;;;12.93;6.40;;;;;;;34.19;40.43;99999.97;5527885;32;32461;-63
2023/07/12 09:32:23;;;;;;;15.30;6.25;;;;;;;33.52;41.02;100001.56;5528014;32;34064;-63
2023/07/12 09:35:37;;;;;;;13.07;6.00;;;;;;;34.19;40.29;100006.28;5528487;32;33840;-63
2023/07/12 09:38:42;;;;;;;12.32;6.57;;;;;;;34.88;39.56;100009.34;5543451;32;33764;-64
2023/07/12 09:41:50;;;;;;;23.75;6.57;;;;;;;36.65;36.11;100017.22;5546953;32;33141;-63
2023/07/12 09:44:54;;;;;;;10.82;5.95;;;;;;;36.49;36.66;100019.91;5533775;32;33875;-63
2023/07/12 09:48:08;;;;;;;11.15;6.07;;;;;;;37.29;34.68;100032.84;5527789;32;33897;-63
2023/07/12 09:51:28;;;;;;;14.87;6.00;;;;;;;34.92;38.88;100036.22;5527540;32;34610;-63
2023/07/12 09:54:45;;;;;;;10.55;6.90;;;;;;;34.31;39.50;100031.16;5522492;32;33851;-63
2023/07/12 09:58:24;;;;;;;11.45;6.47;;;;;;;35.89;36.84;100031.78;5527597;32;34794;-62
2023/07/12 10:01:30;;;;;;;18.00;6.25;;;;;;;36.48;36.90;100023.81;5527701;32;34532;-62
2023/07/12 10:04:45;;;;;;;14.43;6.35;;;;;;;35.55;37.59;100013.66;5528383;32;34795;-62
2023/07/12 10:07:47;;;;;;;10.50;6.55;;;;;;;36.06;36.95;100022.47;5527962;32;33854;-63
2023/07/12 10:11:04;;;;;;;12.98;6.47;;;;;;;35.80;38.09;100008.19;5527928;32;34062;-62
2023/07/12 10:14:11;;;;;;;18.33;6.90;;;;;;;35.74;37.39;99999.34;5515537;32;33898;-62
2023/07/12 10:17:41;;;;;;;14.32;6.57;;;;;;;36.15;36.50;100007.41;5525171;32;33764;-62
2023/07/12 10:20:47;;;;;;;13.20;6.75;;;;;;;35.52;37.88;100002.53;5540434;32;32117;-62
2023/07/12 10:23:58;;;;;;;14.30;6.32;;;;;;;37.07;36.64;100008.53;5533212;32;34235;-63
2023/07/12 10:27:04;;;;;;;15.35;7.30;;;;;;;37.85;33.89;100003.09;5533283;32;34107;-62
2023/07/12 10:30:12;;;;;;;15.80;6.72;;;;;;;38.80;32.69;100003.63;5541153;32;33901;-62
2023/07/12 10:33:22;;;;;;;12.95;6.40;;;;;;;39.57;31.39;99993.22;5546560;32;33612;-63
2023/07/12 10:36:29;;;;;;;12.73;6.70;;;;;;;40.69;30.42;99989.72;5532789;32;33428;-63
2023/07/12 10:39:32;;;;;;;12.23;6.60;;;;;;;40.23;30.39;99989.12;5532691;32;33863;-64
2023/07/12 10:42:44;;;;;;;15.73;7.18;;;;;;;38.36;32.81;99989.22;5546181;32;33871;-63
2023/07/12 10:45:50;;;;;;;16.40;6.97;;;;;;;38.59;33.99;99988.16;5545711;32;34804;-63
2023/07/12 10:48:54;;;;;;;12.18;6.80;;;;;;;37.68;35.39;99979.34;5545997;32;33831;-63
2023/07/12 10:52:15;;;;;;;14.27;6.70;;;;;;;36.08;37.31;99974.00;5543949;32;34638;-63
2023/07/12 10:55:22;;;;;;;16.00;6.90;;;;;;;35.93;38.10;99966.44;5543463;32;33691;-62
2023/07/12 10:58:41;;;;;;;14.75;7.07;;;;;;;35.10;38.07;99954.97;5531543;32;33096;-62
2023/07/12 11:01:45;;;;;;;13.50;6.72;;;;;;;37.58;34.34;99954.97;5542552;32;34103;-63
2023/07/12 11:04:49;;;;;;;16.52;6.78;;;;;;;37.25;35.50;99951.72;5544280;32;33814;-63
2023/07/12 11:07:53;;;;;;;18.75;6.82;;;;;;;38.68;33.68;99949.16;5542482;32;33527;-64
2023/07/12 11:11:01;;;;;;;11.68;6.75;;;;;;;37.64;35.42;99949.97;5509136;32;33665;-64
2023/07/12 11:14:12;;;;;;;14.40;6.97;;;;;;;38.52;32.97;99943.69;5544709;32;33867;-63
2023/07/12 11:17:20;;;;;;;16.52;6.68;;;;;;;39.11;33.98;99946.03;5527738;32;33065;-63
2023/07/12 11:20:24;;;;;;;;;;;;;;;40.11;31.20;99958.75;5530745;32;33083;-63
2023/07/12 11:23:48;;;;;;;12.45;6.50;;;;;;;39.65;31.73;99967.16;5532539;32;32729;-63
2023/07/12 11:26:58;;;;;;;13.13;6.90;;;;;;;41.04;29.87;99967.91;5532798;32;33494;-63
2023/07/12 11:30:14;;;;;;;9.65;6.18;;;;;;;40.93;29.69;99971.72;5545996;32;33692;-64
2023/07/12 11:33:30;;;;;;;9.18;6.32;;;;;;;41.03;29.70;99968.28;5546273;32;34157;-64
2023/07/12 11:36:35;;;;;;;19.95;6.40;;;;;;;42.54;27.71;99980.97;5545452;32;33600;-63
2023/07/12 11:39:38;;;;;;;15.32;6.45;;;;;;;42.21;28.30;99981.97;5531721;32;33930;-63
2023/07/12 11:42:43;;;;;;;11.95;5.93;;;;;;;41.81;28.65;99982.91;5547202;32;34101;-64
2023/07/12 11:45:46;;;;;;;12.55;6.55;;;;;;;40.75;30.61;99974.31;5547730;32;34491;-63
2023/07/12 11:48:56;;;;;;;14.05;6.47;;;;;;;41.48;29.88;99972.69;5534606;32;34208;-64
2023/07/12 11:52:10;;;;;;;11.25;6.30;;;;;;;42.63;27.27;99979.41;5534912;32;34834;-64
2023/07/12 11:55:27;;;;;;;10.82;6.22;;;;;;;42.01;28.48;99975.91;5534516;32;33638;-64
2023/07/12 11:58:30;;;;;;;11.93;6.30;;;;;;;41.73;28.79;99970.13;5548114;32;33622;-64
2023/07/12 12:01:37;;;;;;;14.63;5.95;;;;;;;41.21;29.41;99963.66;5534972;32;33664;-64
2023/07/12 12:04:40;;;;;;;10.57;6.20;;;;;;;40.25;30.74;99964.53;5547711;32;33972;-64
2023/07/12 12:07:45;;;;;;;11.57;6.57;;;;;;;40.89;29.63;99965.31;5534507;32;33844;-64
2023/07/12 12:10:49;;;;;;;13.00;6.20;;;;;;;41.67;30.17;99966.88;5548027;32;33904;-63
2023/07/12 12:13:53;;;;;;;12.25;6.05;;;;;;;43.78;27.16;99970.00;5548525;32;33810;-63
2023/07/12 12:17:02;;;;;;;12.25;5.90;;;;;;;44.11;26.17;99966.78;5547725;32;33833;-63
2023/07/12 12:20:16;;;;;;;11.70;6.05;;;;;;;41.91;28.58;99959.91;5547811;32;33615;-63
2023/07/12 12:23:26;;;;;;;8.98;5.75;;;;;;;40.47;31.44;99965.59;5534678;32;33763;-62
2023/07/12 12:26:34;;;;;;;9.93;5.97;;;;;;;39.24;32.78;99962.47;5534600;32;33733;-63
2023/07/12 12:29:40;;;;;;;15.90;6.22;;;;;;;39.32;33.31;99965.03;5534244;32;34413;-63
2023/07/12 12:32:55;;;;;;;12.68;6.18;;;;;;;40.55;31.59;99956.97;5534201;32;34607;-65
2023/07/12 12:36:01;;;;;;;9.77;5.93;;;;;;;38.82;34.20;99956.94;5548029;32;34043;-63
2023/07/12 12:39:18;;;;;;;9.60;5.80;;;;;;;38.95;33.78;99947.28;5534377;32;33786;-63
2023/07/12 12:42:23;;;;;;;14.25;5.97;;;;;;;38.03;34.08;99954.47;5533955;32;33756;-64
2023/07/12 12:45:32;;;;;;;14.38;5.95;;;;;;;37.78;34.01;99944.75;5528349;32;33339;-63
2023/07/12 12:48:35;;;;;;;10.43;5.35;;;;;;;39.62;32.47;99940.16;5535624;32;33986;-64
2023/07/12 12:51:41;;;;;;;9.05;5.10;;;;;;;39.28;31.58;99939.16;5531633;32;33880;-63
2023/07/12 12:54:47;;;;;;;10.07;5.43;;;;;;;40.27;30.89;99926.03;5546494;32;34520;-65
2023/07/12 12:58:01;;;;;;;8.63;5.03;;;;;;;39.44;31.29;99936.28;5535634;32;34556;-64
2023/07/12 13:01:24;;;;;;;8.60;5.30;;;;;;;37.85;33.83;99925.53;5547919;32;33964;-63
2023/07/12 13:04:31;;;;;;;8.93;5.25;;;;;;;37.60;34.83;99922.19;5534866;32;33863;-63
2023/07/12 13:07:39;;;;;;;8.68;5.10;;;;;;;37.77;34.74;99912.69;5547681;32;32885;-62
2023/07/12 13:11:04;;;;;;;12.07;5.60;;;;;;;37.10;37.29;99911.03;5547952;32;34377;-64
2023/07/12 13:14:09;;;;;;;10.52;5.75;;;;;;;35.79;37.41;99912.72;5547810;32;32199;-63
2023/07/12 13:17:19;;;;;;;11.10;5.70;;;;;;;35.92;37.23;99909.63;5533312;32;34660;-63
2023/07/12 13:20:42;;;;;;;10.27;5.30;;;;;;;36.16;36.09;99908.78;5548082;32;33983;-63
2023/07/12 13:23:46;;;;;;;15.07;5.95;;;;;;;36.36;35.58;99904.25;5533767;32;33803;-64
2023/07/12 13:26:49;;;;;;;14.70;5.80;;;;;;;36.67;35.58;99907.09;5547738;32;34325;-64
2023/07/12 13:29:52;;;;;;;10.13;5.60;;;;;;;36.83;35.28;99904.38;5533657;32;33838;-62
2023/07/12 13:32:56;;;;;;;10.07;5.78;;;;;;;38.07;33.62;99899.94;5533840;32;33754;-63
2023/07/12 13:35:58;;;;;;;9.30;5.47;;;;;;;39.07;32.06;99897.97;5547254;32;34267;-64
2023/07/12 13:39:19;;;;;;;14.73;5.43;;;;;;;40.31;30.04;99891.56;5546174;32;33254;-64
2023/07/12 13:42:25;;;;;;;8.77;5.55;;;;;;;40.09;29.40;99888.88;5546559;32;35243;-63
2023/07/12 13:45:49;;;;;;;10.38;5.93;;;;;;;36.51;34.70;99881.34;5546455;32;33713;-64
2023/07/12 13:48:52;;;;;;;11.95;5.68;;;;;;;35.12;37.54;99872.69;5532541;32;33827;-64
2023/07/12 13:51:56;;;;;;;10.02;5.47;;;;;;;37.58;33.95;99884.94;5533747;32;33774;-64
2023/07/12 13:55:00;;;;;;;10.65;5.20;;;;;;;39.59;30.64;99881.78;5533561;32;33857;-63
2023/07/12 13:58:03;;;;;;;12.07;5.30;;;;;;;40.68;29.56;99880.47;5532974;32;34656;-63
2023/07/12 14:01:16;;;;;;;11.85;5.32;;;;;;;43.42;26.53;99882.66;5533366;32;33890;-63
2023/07/12 14:04:22;;;;;;;10.25;5.28;;;;;;;42.89;26.46;99878.66;5531706;32;33280;-63
2023/07/12 14:07:31;;;;;;;13.93;4.85;;;;;;;42.17;27.30;99876.00;5519133;32;34948;-64
2023/07/12 14:10:37;;;;;;;11.20;5.00;;;;;;;42.67;27.29;99878.97;5537023;32;34018;-63
2023/07/12 14:13:40;;;;;;;25.83;5.20;;;;;;;44.31;25.34;99864.44;5550539;32;33955;-63
2023/07/12 14:16:43;;;;;;;9.02;4.15;;;;;;;43.46;25.40;99859.09;5535842;32;33645;-62
2023/07/12 14:19:48;;;;;;;8.02;4.30;;;;;;;40.72;26.30;99852.66;5539616;32;33788;-62